createdAt,value
2018-07-28T00:02:25.394Z,6.60
2018-07-28T00:04:54.088Z,6.53
2018-07-28T00:07:22.756Z,6.70
2018-07-28T00:09:51.449Z,7.00
2018-07-28T00:12:20.167Z,7.50
2018-07-28T00:14:48.906Z,7.63
2018-07-28T00:17:17.581Z,7.27
2018-07-28T00:19:46.182Z,7.67
2018-07-28T00:22:14.899Z,7.70
2018-07-28T00:24:43.622Z,7.70
2018-07-28T00:27:12.260Z,7.17
2018-07-28T00:29:40.885Z,7.10
2018-07-28T00:32:09.536Z,7.17
2018-07-28T00:34:38.198Z,6.87
2018-07-28T00:37:06.901Z,7.23
2018-07-28T00:39:35.586Z,6.63
2018-07-28T00:42:04.245Z,7.17
2018-07-28T00:44:32.556Z,7.47
2018-07-28T00:47:01.169Z,8.27
2018-07-28T00:49:29.790Z,8.80
2018-07-28T00:51:58.067Z,8.33
2018-07-28T00:54:26.265Z,8.80
2018-07-28T00:56:54.906Z,8.30
2018-07-28T00:59:23.601Z,7.70
2018-07-28T01:01:52.162Z,7.70
2018-07-28T01:04:20.843Z,8.40
2018-07-28T01:06:49.423Z,8.30
2018-07-28T01:09:18.042Z,7.83
2018-07-28T01:11:46.736Z,7.13
2018-07-28T01:14:15.349Z,7.67
2018-07-28T01:16:43.994Z,7.80
2018-07-28T01:19:12.694Z,6.93
2018-07-28T01:21:41.370Z,7.67
2018-07-28T01:24:10.160Z,7.40
2018-07-28T01:26:38.757Z,7.90
2018-07-28T01:29:12.715Z,7.40
2018-07-28T01:31:41.470Z,6.80
2018-07-28T01:34:10.252Z,7.20
2018-07-28T01:36:38.942Z,6.90
2018-07-28T01:39:10.962Z,7.60
2018-07-28T01:41:39.842Z,7.57
2018-07-28T01:44:09.169Z,7.40
2018-07-28T01:46:37.897Z,7.10
2018-07-28T01:49:06.963Z,7.10
2018-07-28T01:51:36.111Z,7.90
2018-07-28T01:54:04.795Z,8.30
2018-07-28T01:56:33.425Z,7.80
2018-07-28T01:59:02.006Z,7.07
2018-07-28T02:01:30.661Z,8.27
2018-07-28T02:03:59.397Z,7.93
2018-07-28T02:06:28.123Z,7.20
2018-07-28T02:08:56.749Z,8.37
2018-07-28T02:11:25.402Z,7.73
2018-07-28T02:13:54.114Z,8.30
2018-07-28T02:16:22.744Z,7.17
2018-07-28T02:18:51.409Z,7.33
2018-07-28T02:21:20.061Z,8.13
2018-07-28T02:23:48.705Z,7.10
2018-07-28T02:26:17.293Z,8.00
2018-07-28T02:28:46.051Z,8.17
2018-07-28T02:31:14.782Z,8.27
2018-07-28T02:33:43.470Z,8.67
2018-07-28T02:36:12.180Z,7.63
2018-07-28T02:38:40.863Z,8.60
2018-07-28T02:41:09.593Z,7.57
2018-07-28T02:43:38.223Z,7.80
2018-07-28T02:46:06.911Z,7.63
2018-07-28T02:48:35.590Z,8.10
2018-07-28T02:51:04.349Z,7.43
2018-07-28T02:53:33.013Z,7.80
2018-07-28T02:56:01.643Z,8.47
2018-07-28T02:58:30.318Z,8.27
2018-07-28T03:00:58.923Z,8.70
2018-07-28T03:03:27.526Z,9.03
2018-07-28T03:05:56.176Z,8.23
2018-07-28T03:08:24.907Z,8.60
2018-07-28T03:13:51.118Z,8.33
2018-07-28T03:16:19.790Z,8.30
2018-07-28T03:18:48.438Z,8.33
2018-07-28T03:21:17.073Z,8.60
2018-07-28T03:23:45.679Z,8.30
2018-07-28T03:26:14.340Z,8.43
2018-07-28T03:28:42.987Z,9.03
2018-07-28T03:31:11.598Z,8.50
2018-07-28T03:33:40.270Z,8.27
2018-07-28T03:36:08.908Z,8.50
2018-07-28T03:38:37.493Z,8.53
2018-07-28T03:41:06.165Z,8.57
2018-07-28T03:43:34.741Z,8.67
2018-07-28T03:46:03.401Z,9.03
2018-07-28T03:48:32.057Z,8.70
2018-07-28T03:51:00.778Z,9.10
2018-07-28T03:53:29.505Z,9.57
2018-07-28T03:55:58.158Z,9.63
2018-07-28T03:58:26.977Z,9.60
2018-07-28T04:00:55.219Z,9.60
2018-07-28T04:03:23.847Z,9.30
2018-07-28T04:05:52.517Z,9.77
2018-07-28T04:08:21.176Z,9.60
2018-07-28T04:10:49.860Z,9.70
2018-07-28T04:13:18.549Z,9.80
2018-07-28T04:15:47.158Z,9.37
2018-07-28T04:18:15.805Z,10.23
2018-07-28T04:20:44.434Z,9.30
2018-07-28T04:23:13.127Z,9.63
2018-07-28T04:25:41.735Z,10.20
2018-07-28T04:28:10.482Z,10.70
2018-07-28T04:30:39.224Z,10.33
2018-07-28T04:33:07.960Z,10.33
2018-07-28T04:35:36.826Z,9.40
2018-07-28T04:38:05.640Z,9.40
2018-07-28T04:40:55.051Z,8.90
2018-07-28T04:43:24.805Z,11.83
2018-07-28T04:45:53.550Z,11.33
2018-07-28T04:51:27.606Z,9.30
2018-07-28T04:53:56.260Z,8.90
2018-07-28T04:56:25.131Z,8.57
2018-07-28T04:58:53.682Z,8.63
2018-07-28T05:01:22.294Z,7.67
2018-07-28T05:03:51.082Z,8.00
2018-07-28T05:06:19.690Z,8.17
2018-07-28T05:08:48.364Z,7.33
2018-07-28T05:11:17.001Z,7.43
2018-07-28T05:13:45.660Z,7.17
2018-07-28T05:16:38.353Z,7.20
2018-07-28T05:19:07.056Z,7.50
2018-07-28T05:21:35.766Z,7.37
2018-07-28T05:24:08.761Z,7.80
2018-07-28T05:26:37.319Z,8.20
2018-07-28T05:29:06.415Z,7.73
2018-07-28T05:31:35.066Z,7.63
2018-07-28T05:34:03.700Z,8.20
2018-07-28T05:36:32.362Z,7.27
2018-07-28T05:39:01.095Z,6.87
2018-07-28T05:41:29.726Z,6.90
2018-07-28T05:43:58.378Z,7.93
2018-07-28T05:46:26.974Z,7.30
2018-07-28T05:48:55.609Z,6.67
2018-07-28T05:51:24.261Z,7.23
2018-07-28T05:53:52.938Z,6.90
2018-07-28T05:56:27.147Z,6.10
2018-07-28T05:58:55.852Z,6.43
2018-07-28T06:01:24.539Z,5.77
2018-07-28T06:03:53.226Z,5.53
2018-07-28T06:06:22.401Z,7.20
2018-07-28T06:08:50.781Z,7.00
2018-07-28T06:11:19.402Z,7.60
2018-07-28T06:13:48.110Z,7.27
2018-07-28T06:16:16.802Z,7.47
2018-07-28T06:18:45.454Z,7.10
2018-07-28T06:21:14.170Z,7.10
2018-07-28T06:23:42.812Z,7.47
2018-07-28T06:26:11.531Z,6.70
2018-07-28T06:28:40.159Z,6.70
2018-07-28T06:31:08.842Z,7.07
2018-07-28T06:33:37.546Z,6.67
2018-07-28T06:36:28.738Z,7.20
2018-07-28T06:38:57.349Z,6.80
2018-07-28T06:41:26.047Z,6.63
2018-07-28T06:43:55.228Z,6.63
2018-07-28T06:46:23.997Z,6.47
2018-07-28T06:48:52.870Z,6.83
2018-07-28T06:51:21.623Z,6.40
2018-07-28T06:53:50.428Z,6.80
2018-07-28T06:56:19.071Z,6.73
2018-07-28T06:58:47.750Z,7.43
2018-07-28T07:01:16.358Z,7.47
2018-07-28T07:03:44.944Z,6.70
2018-07-28T07:06:13.667Z,7.33
2018-07-28T07:08:42.451Z,7.10
2018-07-28T07:11:11.138Z,8.00
2018-07-28T07:13:39.790Z,8.00
2018-07-28T07:16:08.449Z,7.67
2018-07-28T07:18:37.139Z,7.30
2018-07-28T07:21:05.811Z,6.90
2018-07-28T07:23:34.485Z,7.03
2018-07-28T07:26:02.783Z,7.00
2018-07-28T07:28:31.548Z,6.93
2018-07-28T07:31:00.219Z,6.73
2018-07-28T07:33:28.965Z,6.70
2018-07-28T07:35:57.753Z,6.73
2018-07-28T07:38:26.430Z,7.30
2018-07-28T07:40:55.119Z,7.37
2018-07-28T07:43:23.842Z,7.00
2018-07-28T07:45:52.550Z,6.50
2018-07-28T07:48:21.277Z,6.03
2018-07-28T07:50:49.930Z,6.60
2018-07-28T07:53:18.605Z,6.97
2018-07-28T07:55:47.314Z,6.70
2018-07-28T07:58:16.024Z,6.97
2018-07-28T08:00:44.618Z,6.57
2018-07-28T08:03:13.333Z,6.50
2018-07-28T08:05:41.933Z,6.33
2018-07-28T08:08:10.570Z,6.70
2018-07-28T08:10:39.231Z,6.83
2018-07-28T08:13:07.910Z,6.93
2018-07-28T08:15:36.556Z,6.40
2018-07-28T08:18:05.339Z,6.60
2018-07-28T08:20:34.067Z,6.80
2018-07-28T08:23:02.750Z,7.40
2018-07-28T08:25:31.327Z,7.20
2018-07-28T08:28:00.050Z,7.50
2018-07-28T08:30:28.684Z,7.40
2018-07-28T08:32:57.426Z,7.80
2018-07-28T08:35:26.149Z,6.77
2018-07-28T08:37:54.850Z,6.70
2018-07-28T08:40:25.359Z,7.10
2018-07-28T08:42:53.935Z,6.60
2018-07-28T08:45:22.647Z,6.80
2018-07-28T08:47:51.767Z,6.60
2018-07-28T08:50:20.514Z,6.60
2018-07-28T08:52:49.238Z,6.33
2018-07-28T08:55:17.911Z,6.40
2018-07-28T08:57:46.544Z,5.77
2018-07-28T09:00:15.264Z,6.57
2018-07-28T09:02:43.877Z,5.60
2018-07-28T09:05:12.532Z,6.10
2018-07-28T09:07:41.116Z,5.70
2018-07-28T09:10:09.843Z,5.90
2018-07-28T09:12:38.527Z,5.30
2018-07-28T09:15:08.533Z,5.73
2018-07-28T09:17:37.228Z,5.20
2018-07-28T09:20:06.170Z,5.53
2018-07-28T09:22:34.950Z,5.60
2018-07-28T09:25:03.571Z,4.53
2018-07-28T09:27:32.270Z,5.00
2018-07-28T09:30:00.868Z,3.87
2018-07-28T09:32:29.507Z,3.80
2018-07-28T09:34:58.198Z,3.60
2018-07-28T09:37:26.875Z,4.00
2018-07-28T09:39:55.557Z,3.77
2018-07-28T09:42:24.146Z,3.70
2018-07-28T09:44:52.784Z,3.60
2018-07-28T09:47:21.438Z,4.30
2018-07-28T09:49:49.789Z,4.57
2018-07-28T09:52:19.797Z,4.30
2018-07-28T09:54:48.377Z,4.30
2018-07-28T09:57:17.008Z,4.20
2018-07-28T09:59:45.642Z,8.23
2018-07-28T10:02:14.356Z,16.57
2018-07-28T10:04:43.049Z,3.77
2018-07-28T10:07:11.775Z,10.90
2018-07-28T10:09:40.414Z,5.10
2018-07-28T10:12:09.185Z,4.20
2018-07-28T10:14:37.862Z,3.43
2018-07-28T10:17:06.592Z,3.73
2018-07-28T10:19:35.286Z,3.47
2018-07-28T10:22:04.045Z,3.77
2018-07-28T10:24:32.718Z,3.17
2018-07-28T10:27:07.081Z,3.00
2018-07-28T10:29:37.814Z,3.70
2018-07-28T10:32:06.669Z,3.60
2018-07-28T10:34:35.415Z,4.50
2018-07-28T10:37:04.191Z,4.20
2018-07-28T10:39:32.940Z,4.20
2018-07-28T10:42:01.646Z,4.10
2018-07-28T10:44:30.403Z,4.33
2018-07-28T10:47:00.036Z,3.90
2018-07-28T10:49:28.796Z,4.10
2018-07-28T10:51:57.571Z,3.77
2018-07-28T10:54:26.183Z,3.77
2018-07-28T10:56:54.864Z,3.70
2018-07-28T10:59:23.633Z,3.50
2018-07-28T11:01:52.355Z,3.70
2018-07-28T11:04:21.050Z,3.77
2018-07-28T11:06:49.706Z,3.47
2018-07-28T11:09:18.390Z,3.53
2018-07-28T11:11:47.118Z,3.30
2018-07-28T11:14:15.785Z,3.00
2018-07-28T11:16:44.347Z,3.40
2018-07-28T11:19:12.978Z,3.63
2018-07-28T11:21:55.423Z,3.57
2018-07-28T11:24:24.063Z,3.60
2018-07-28T11:26:52.758Z,3.30
2018-07-28T11:29:21.507Z,3.73
2018-07-28T11:32:01.286Z,3.60
2018-07-28T11:34:40.997Z,3.57
2018-07-28T11:37:20.859Z,3.63
2018-07-28T11:40:57.948Z,3.90
2018-07-28T11:43:37.676Z,3.80
2018-07-28T11:46:06.385Z,3.30
2018-07-28T11:48:35.042Z,3.63
2018-07-28T11:51:03.667Z,3.70
2018-07-28T11:53:32.524Z,4.07
2018-07-28T11:56:01.166Z,3.83
2018-07-28T11:58:29.846Z,4.50
2018-07-28T12:00:58.507Z,4.13
2018-07-28T12:03:27.150Z,4.53
2018-07-28T12:05:55.806Z,4.80
2018-07-28T12:08:24.419Z,4.87
2018-07-28T12:10:53.103Z,5.03
2018-07-28T12:13:21.789Z,4.63
2018-07-28T12:15:50.775Z,4.87
2018-07-28T12:18:19.485Z,4.77
2018-07-28T12:20:49.086Z,4.80
2018-07-28T12:23:17.469Z,4.80
2018-07-28T12:25:47.933Z,5.10
2018-07-28T12:28:16.666Z,5.10
2018-07-28T12:30:51.063Z,5.07
2018-07-28T12:33:19.680Z,5.03
2018-07-28T12:35:48.393Z,5.10
2018-07-28T12:38:17.050Z,5.40
2018-07-28T12:40:47.830Z,5.93
2018-07-28T12:43:16.553Z,5.30
2018-07-28T12:45:45.240Z,5.67
2018-07-28T12:48:13.798Z,6.53
2018-07-28T12:50:42.406Z,5.87
2018-07-28T12:53:11.010Z,5.93
2018-07-28T12:55:39.752Z,6.27
2018-07-28T12:58:08.375Z,6.10
2018-07-28T13:00:37.040Z,5.70
2018-07-28T13:03:09.585Z,6.60
2018-07-28T13:05:38.282Z,6.00
2018-07-28T13:08:07.007Z,5.37
2018-07-28T13:10:35.648Z,5.10
2018-07-28T13:13:04.393Z,6.40
2018-07-28T13:15:33.053Z,5.10
2018-07-28T13:18:01.876Z,5.33
2018-07-28T13:20:30.698Z,5.53
2018-07-28T13:22:59.466Z,5.20
2018-07-28T13:25:28.204Z,5.43
2018-07-28T13:28:04.462Z,5.67
2018-07-28T13:30:33.297Z,5.50
2018-07-28T13:33:01.955Z,5.63
2018-07-28T13:35:30.632Z,5.53
2018-07-28T13:37:59.313Z,5.60
2018-07-28T13:40:27.999Z,5.20
2018-07-28T13:42:56.630Z,5.67
2018-07-28T13:45:25.258Z,5.57
2018-07-28T13:47:53.899Z,5.20
2018-07-28T13:50:22.724Z,5.80
2018-07-28T13:52:51.342Z,5.63
2018-07-28T13:55:19.981Z,5.90
2018-07-28T13:57:48.611Z,5.40
2018-07-28T14:00:17.274Z,5.80
2018-07-28T14:02:45.862Z,5.30
2018-07-28T14:05:14.613Z,5.83
2018-07-28T14:07:43.129Z,6.00
2018-07-28T14:10:11.761Z,5.97
2018-07-28T14:12:40.398Z,5.60
2018-07-28T14:15:09.599Z,5.53
2018-07-28T14:17:38.223Z,5.60
2018-07-28T14:20:07.076Z,5.60
2018-07-28T14:22:35.977Z,5.53
2018-07-28T14:25:05.298Z,5.40
2018-07-28T14:27:34.025Z,5.43
2018-07-28T14:30:02.713Z,5.60
2018-07-28T14:32:31.348Z,5.63
2018-07-28T14:35:00.013Z,5.00
2018-07-28T14:37:28.653Z,5.97
2018-07-28T14:39:57.459Z,6.20
2018-07-28T14:42:36.732Z,5.60
2018-07-28T14:45:07.098Z,6.33
2018-07-28T14:47:35.358Z,5.83
2018-07-28T14:50:04.111Z,6.43
2018-07-28T14:52:32.815Z,5.80
2018-07-28T14:55:01.591Z,6.20
2018-07-28T14:57:44.181Z,5.97
2018-07-28T15:00:12.994Z,6.30
2018-07-28T15:02:41.746Z,6.30
2018-07-28T15:05:10.439Z,6.30
2018-07-28T15:07:39.220Z,5.80
2018-07-28T15:10:07.932Z,6.50
2018-07-28T15:12:36.651Z,6.37
2018-07-28T15:15:05.930Z,6.90
2018-07-28T15:17:34.624Z,7.20
2018-07-28T15:20:03.307Z,6.30
2018-07-28T15:22:49.848Z,6.93
2018-07-28T15:25:18.524Z,6.20
2018-07-28T15:27:47.257Z,6.30
2018-07-28T15:30:15.990Z,6.20
2018-07-28T15:32:44.682Z,6.33
2018-07-28T15:35:13.347Z,6.40
2018-07-28T15:37:41.961Z,6.40
2018-07-28T15:40:10.738Z,6.80
2018-07-28T15:42:39.454Z,6.30
2018-07-28T15:45:08.380Z,9.33
2018-07-28T15:47:37.092Z,6.80
2018-07-28T15:50:05.982Z,7.33
2018-07-28T15:52:34.569Z,7.93
2018-07-28T15:55:03.307Z,7.53
2018-07-28T15:57:31.965Z,7.27
2018-07-28T16:00:05.919Z,8.00
2018-07-28T16:02:34.549Z,7.70
2018-07-28T16:05:16.915Z,8.50
2018-07-28T16:07:45.594Z,19.90
2018-07-28T16:10:14.279Z,10.13
2018-07-28T16:12:42.859Z,13.17
2018-07-28T16:15:11.474Z,11.10
2018-07-28T16:17:40.131Z,8.80
2018-07-28T16:20:08.989Z,10.20
2018-07-28T16:22:37.807Z,8.47
2018-07-28T16:25:06.532Z,8.20
2018-07-28T16:27:35.213Z,8.77
2018-07-28T16:30:03.815Z,8.00
2018-07-28T16:32:32.246Z,8.93
2018-07-28T16:35:01.934Z,8.77
2018-07-28T16:37:37.737Z,8.80
2018-07-28T16:40:06.345Z,8.90
2018-07-28T16:42:36.862Z,12.03
2018-07-28T16:45:24.481Z,11.20
2018-07-28T16:47:52.930Z,9.00
2018-07-28T16:50:22.377Z,9.70
2018-07-28T16:52:50.914Z,9.37
2018-07-28T16:55:19.389Z,9.13
2018-07-28T16:57:47.867Z,9.13
2018-07-28T17:00:16.344Z,9.33
2018-07-28T17:02:44.842Z,9.13
2018-07-28T17:05:13.360Z,9.67
2018-07-28T17:07:42.003Z,10.07
2018-07-28T17:10:10.707Z,9.33
2018-07-28T17:12:39.356Z,9.13
2018-07-28T17:15:18.369Z,10.10
2018-07-28T17:17:46.996Z,9.67
2018-07-28T17:20:15.731Z,8.43
2018-07-28T17:25:44.435Z,10.80
2018-07-28T17:28:13.077Z,7.97
2018-07-28T17:30:41.803Z,8.47
2018-07-28T17:33:10.414Z,8.47
2018-07-28T17:35:39.126Z,8.40
2018-07-28T17:38:08.027Z,8.70
2018-07-28T17:40:54.599Z,7.93
2018-07-28T17:43:45.284Z,8.63
2018-07-28T17:46:13.922Z,8.33
2018-07-28T17:48:42.623Z,8.77
2018-07-28T17:51:11.342Z,8.93
2018-07-28T17:53:40.103Z,9.53
2018-07-28T17:56:08.918Z,7.90
2018-07-28T17:58:37.758Z,8.10
2018-07-28T18:01:06.623Z,8.70
2018-07-28T18:03:35.239Z,8.77
2018-07-28T18:06:04.090Z,7.90
2018-07-28T18:08:32.715Z,7.63
2018-07-28T18:11:01.326Z,7.73
2018-07-28T18:13:49.384Z,8.50
2018-07-28T18:16:18.102Z,8.70
2018-07-28T18:18:46.806Z,8.23
2018-07-28T18:21:15.478Z,8.87
2018-07-28T18:23:44.196Z,8.63
2018-07-28T18:26:27.394Z,8.47
2018-07-28T18:28:56.147Z,8.17
2018-07-28T18:31:24.915Z,8.53
2018-07-28T18:33:53.601Z,8.93
2018-07-28T18:36:22.291Z,8.53
2018-07-28T18:38:50.967Z,8.00
2018-07-28T18:41:19.554Z,8.27
2018-07-28T18:43:48.199Z,7.40
2018-07-28T18:46:16.872Z,7.90
2018-07-28T18:48:50.778Z,8.30
2018-07-28T18:51:19.430Z,8.40
2018-07-28T18:53:48.344Z,8.00
2018-07-28T18:56:17.072Z,8.10
2018-07-28T18:58:45.734Z,8.03
2018-07-28T19:01:14.448Z,8.43
2018-07-28T19:06:47.594Z,7.90
2018-07-28T19:09:21.604Z,8.67
2018-07-28T19:11:50.203Z,8.33
2018-07-28T19:14:24.004Z,8.67
2018-07-28T19:16:52.685Z,8.53
2018-07-28T19:19:21.336Z,7.77
2018-07-28T19:21:49.963Z,8.30
2018-07-28T19:30:23.155Z,8.10
2018-07-28T19:32:51.930Z,9.00
2018-07-28T19:35:20.593Z,8.30
2018-07-28T19:37:49.229Z,9.10
2018-07-28T19:40:17.936Z,9.70
2018-07-28T19:45:49.922Z,8.73
2018-07-28T19:48:18.604Z,8.93
2018-07-28T19:50:47.315Z,9.17
2018-07-28T19:53:15.592Z,8.93
2018-07-28T19:55:44.336Z,8.57
2018-07-28T19:58:13.008Z,9.53
2018-07-28T20:00:41.693Z,8.30
2018-07-28T20:03:10.334Z,8.63
2018-07-28T20:05:38.970Z,9.27
2018-07-28T20:08:07.576Z,9.30
2018-07-28T20:10:36.141Z,8.33
2018-07-28T20:13:04.886Z,8.47
2018-07-28T20:15:33.516Z,8.67
2018-07-28T20:18:02.180Z,8.90
2018-07-28T20:20:30.805Z,8.53
2018-07-28T20:22:59.539Z,8.67
2018-07-28T20:25:28.247Z,8.33
2018-07-28T20:27:56.882Z,8.70
2018-07-28T20:30:25.783Z,9.17
2018-07-28T20:32:54.406Z,8.50
2018-07-28T20:35:23.113Z,9.00
2018-07-28T20:37:51.743Z,8.70
2018-07-28T20:40:20.512Z,8.80
2018-07-28T20:42:49.637Z,8.20
2018-07-28T20:45:18.385Z,8.43
2018-07-28T20:47:46.982Z,8.60
2018-07-28T20:50:15.558Z,8.97
2018-07-28T20:52:44.171Z,9.03
2018-07-28T20:55:12.888Z,10.70
2018-07-28T20:57:41.597Z,10.47
2018-07-28T21:00:10.342Z,10.50
2018-07-28T21:02:39.071Z,11.03
2018-07-28T21:05:07.758Z,10.80
2018-07-28T21:07:36.438Z,12.23
2018-07-28T21:10:05.158Z,11.60
2018-07-28T21:12:33.807Z,10.63
2018-07-28T21:15:02.521Z,11.27
2018-07-28T21:17:31.149Z,10.60
2018-07-28T21:19:59.749Z,9.20
2018-07-28T21:22:28.382Z,9.90
2018-07-28T21:24:57.030Z,8.60
2018-07-28T21:27:26.583Z,8.20
2018-07-28T21:29:55.267Z,8.33
2018-07-28T21:32:23.981Z,8.63
2018-07-28T21:34:52.714Z,8.80
2018-07-28T21:37:21.465Z,9.13
2018-07-28T21:39:50.120Z,8.27
2018-07-28T21:42:18.763Z,8.53
2018-07-28T21:44:47.441Z,8.67
2018-07-28T21:47:16.066Z,8.70
2018-07-28T21:49:44.634Z,8.70
2018-07-28T21:52:13.269Z,8.83
2018-07-28T21:54:41.872Z,8.90
2018-07-28T21:57:10.458Z,8.80
2018-07-28T21:59:39.046Z,9.00
2018-07-28T22:02:07.814Z,8.63
2018-07-28T22:04:38.465Z,8.30
2018-07-28T22:07:07.110Z,8.53
2018-07-28T22:09:35.775Z,8.17
2018-07-28T22:12:04.451Z,8.50
2018-07-28T22:14:46.651Z,9.00
2018-07-28T22:17:15.466Z,9.03
2018-07-28T22:19:44.158Z,8.73
2018-07-28T22:22:12.841Z,8.70
2018-07-28T22:24:41.469Z,8.57
2018-07-28T22:27:10.156Z,8.07
2018-07-28T22:29:38.773Z,8.50
2018-07-28T22:32:07.501Z,8.13
2018-07-28T22:34:36.242Z,8.50
2018-07-28T22:37:04.850Z,9.00
2018-07-28T22:39:33.484Z,8.53
2018-07-28T22:42:02.214Z,8.90
2018-07-28T22:44:30.770Z,8.20
2018-07-28T22:46:59.526Z,9.00
2018-07-28T22:49:28.242Z,7.93
2018-07-28T22:51:57.010Z,9.00
2018-07-28T22:54:25.733Z,9.60
2018-07-28T22:56:54.395Z,8.63
2018-07-28T22:59:23.120Z,10.00
2018-07-28T23:01:51.865Z,9.90
2018-07-28T23:04:20.501Z,9.50
2018-07-28T23:06:49.194Z,9.20
2018-07-28T23:09:17.802Z,9.27
2018-07-28T23:11:46.492Z,9.60
2018-07-28T23:14:15.187Z,9.30
2018-07-28T23:16:43.911Z,9.43
2018-07-28T23:19:12.591Z,9.63
2018-07-28T23:21:41.183Z,9.97
2018-07-28T23:24:09.781Z,10.23
2018-07-28T23:26:38.453Z,9.70
2018-07-28T23:29:07.093Z,10.00
2018-07-28T23:31:35.670Z,9.87
2018-07-28T23:34:04.369Z,10.23
2018-07-28T23:36:32.641Z,9.80
2018-07-28T23:39:01.234Z,9.97
2018-07-28T23:41:29.970Z,9.40
2018-07-28T23:43:58.649Z,9.70
2018-07-28T23:46:27.293Z,9.60
2018-07-28T23:48:55.906Z,9.77
2018-07-28T23:51:24.570Z,10.60
2018-07-28T23:53:53.258Z,9.93
2018-07-28T23:56:21.914Z,10.93
2018-07-28T23:58:50.619Z,10.20
